Time;durP1;ratioP1;P1;durP2;ratioP2;P2;SDS_P1;SDS_P2;PMS_P1;PMS_P2;Temp;Humidity;BMP_temperature;BMP_pressure;BME280_temperature;BME280_humidity;BME280_pressure;Samples;Min_cycle;Max_cycle;Signal;HPM_P1;HPM_P2
2021/01/03 00:02:00;;;;;;;31.73;19.97;;;7.60;96.60;;;;;;5085709;28;20377;-73
2021/01/03 00:04:26;;;;;;;26.27;17.90;;;7.60;95.90;;;;;;5031018;28;20437;-73
2021/01/03 00:06:53;;;;;;;24.90;18.50;;;7.70;95.80;;;;;;5050887;28;20414;-73
2021/01/03 00:09:20;;;;;;;24.73;18.50;;;7.60;95.80;;;;;;5052143;28;20473;-73
2021/01/03 00:11:46;;;;;;;27.30;20.47;;;7.60;96.00;;;;;;5084700;28;20387;-75
2021/01/03 00:14:12;;;;;;;26.40;19.13;;;7.60;95.90;;;;;;5052098;28;20385;-75
2021/01/03 00:16:38;;;;;;;28.47;20.23;;;7.60;95.70;;;;;;5053016;28;20414;-74
2021/01/03 00:19:05;;;;;;;27.30;20.00;;;7.60;95.60;;;;;;5052096;28;20208;-75
2021/01/03 00:21:30;;;;;;;28.43;19.90;;;7.70;95.40;;;;;;5051557;28;20186;-73
2021/01/03 00:23:56;;;;;;;24.60;18.47;;;7.70;95.40;;;;;;5052903;28;20413;-73
2021/01/03 00:26:22;;;;;;;28.87;20.07;;;7.80;95.40;;;;;;5032685;28;20255;-73
2021/01/03 00:28:48;;;;;;;23.17;17.20;;;7.80;95.30;;;;;;5052505;28;20441;-73
2021/01/03 00:31:14;;;;;;;25.27;19.90;;;7.80;95.50;;;;;;5064892;28;20175;-73
2021/01/03 00:33:40;;;;;;;25.47;19.00;;;7.80;95.40;;;;;;5072332;28;20889;-73
2021/01/03 00:36:06;;;;;;;25.80;18.20;;;7.80;95.20;;;;;;5056625;28;20396;-74
2021/01/03 00:38:32;;;;;;;25.97;18.47;;;7.70;95.10;;;;;;5052295;28;20200;-73
2021/01/03 00:40:58;;;;;;;25.60;19.77;;;7.80;95.10;;;;;;5052169;28;20445;-73
2021/01/03 00:43:25;;;;;;;29.40;20.47;;;7.80;95.10;;;;;;5051599;28;20425;-73
2021/01/03 00:45:52;;;;;;;25.10;18.57;;;7.80;95.00;;;;;;5052526;28;20755;-73
2021/01/03 00:48:18;;;;;;;22.87;18.20;;;7.70;95.00;;;;;;5036486;28;20404;-75
2021/01/03 00:50:43;;;;;;;26.50;19.60;;;7.70;94.90;;;;;;5045123;28;20429;-73
2021/01/03 00:53:09;;;;;;;25.10;18.87;;;7.80;94.80;;;;;;5051210;28;20415;-74
2021/01/03 00:55:35;;;;;;;26.93;18.97;;;7.80;94.70;;;;;;5050090;28;20180;-73
2021/01/03 00:58:00;;;;;;;24.07;18.60;;;7.80;94.90;;;;;;5051864;28;20227;-74
2021/01/03 01:00:32;;;;;;;26.03;18.83;;;7.80;94.80;;;;;;5051223;28;20643;-74
2021/01/03 01:02:58;;;;;;;23.13;18.47;;;7.80;94.70;;;;;;5052350;28;20524;-74
2021/01/03 01:05:25;;;;;;;26.30;19.53;;;7.80;94.60;;;;;;5051413;28;20398;-74
2021/01/03 01:07:51;;;;;;;26.77;19.50;;;7.80;94.50;;;;;;5051870;28;20401;-74
2021/01/03 01:10:30;;;;;;;27.10;18.87;;;7.80;94.40;;;;;;5051319;28;20455;-73
2021/01/03 01:13:00;;;;;;;26.90;17.67;;;7.70;94.50;;;;;;5051042;28;20412;-73
2021/01/03 01:15:28;;;;;;;25.10;20.60;;;7.70;95.00;;;;;;5051368;28;20415;-73
2021/01/03 01:17:56;;;;;;;24.17;17.90;;;7.60;94.70;;;;;;5054729;28;20393;-73
2021/01/03 01:20:24;;;;;;;22.43;17.23;;;7.50;94.90;;;;;;5058049;28;20417;-73
2021/01/03 01:22:50;;;;;;;22.27;15.90;;;7.40;94.90;;;;;;5061274;28;20441;-73
2021/01/03 01:25:19;;;;;;;21.13;16.63;;;7.40;95.30;;;;;;5057931;28;20522;-74
2021/01/03 01:27:45;;;;;;;24.77;17.80;;;7.40;94.70;;;;;;5060417;28;20207;-73
2021/01/03 01:30:12;;;;;;;24.07;17.40;;;7.40;94.60;;;;;;5059448;28;20463;-74
2021/01/03 01:32:40;;;;;;;24.97;18.53;;;7.50;95.10;;;;;;5060282;28;20393;-73
2021/01/03 01:35:08;;;;;;;22.40;17.80;;;7.40;96.10;;;;;;5059096;28;21002;-74
2021/01/03 01:37:34;;;;;;;21.87;17.00;;;7.40;94.70;;;;;;5057035;28;20387;-73
2021/01/03 01:40:00;;;;;;;21.33;17.03;;;7.40;94.50;;;;;;5060214;28;20425;-73
2021/01/03 01:42:26;;;;;;;21.17;15.87;;;7.50;94.40;;;;;;5057769;28;20313;-73
2021/01/03 01:44:52;;;;;;;20.73;16.27;;;7.40;94.00;;;;;;5059585;28;20257;-73
2021/01/03 01:47:23;;;;;;;21.53;15.30;;;7.50;94.40;;;;;;5059033;28;20408;-74
2021/01/03 01:49:52;;;;;;;18.47;15.37;;;7.50;93.90;;;;;;5061516;28;20430;-73
2021/01/03 01:52:20;;;;;;;17.33;14.00;;;7.50;93.60;;;;;;5061530;28;20417;-73
2021/01/03 01:54:56;;;;;;;19.80;14.83;;;7.50;93.50;;;;;;5060905;28;20430;-73
2021/01/03 01:57:25;;;;;;;17.80;13.73;;;7.40;93.70;;;;;;5056661;28;20785;-73
2021/01/03 02:00:14;;;;;;;17.53;13.87;;;7.40;93.30;;;;;;5058704;28;20391;-73
2021/01/03 02:02:47;;;;;;;19.03;14.83;;;7.40;93.60;;;;;;5056730;28;20390;-73
2021/01/03 02:05:29;;;;;;;15.63;12.77;;;7.50;93.30;;;;;;5058947;28;20451;-73
2021/01/03 02:08:13;;;;;;;15.43;12.73;;;7.50;92.80;;;;;;5059271;28;20384;-73
2021/01/03 02:10:45;;;;;;;15.90;13.03;;;7.50;93.00;;;;;;5059450;28;20513;-73
2021/01/03 02:13:26;;;;;;;16.47;13.50;;;7.50;92.50;;;;;;5058332;28;20418;-74
2021/01/03 02:15:59;;;;;;;18.00;14.33;;;7.50;92.40;;;;;;5059089;28;20385;-73
2021/01/03 02:18:25;;;;;;;17.80;12.87;;;7.50;92.70;;;;;;5058026;28;20466;-73
2021/01/03 02:21:28;;;;;;;18.90;14.00;;;7.40;92.80;;;;;;5060000;28;20960;-73
2021/01/03 02:24:02;;;;;;;19.30;13.90;;;7.50;92.60;;;;;;5060858;28;20432;-73
2021/01/03 02:26:32;;;;;;;15.85;13.45;;;7.50;92.50;;;;;;5059965;28;20392;-73
2021/01/03 02:28:59;;;;;;;19.70;14.03;;;7.50;92.70;;;;;;5060268;28;20614;-73
2021/01/03 02:31:47;;;;;;;16.33;13.00;;;7.50;92.80;;;;;;5062941;28;20422;-74
2021/01/03 02:34:22;;;;;;;16.30;12.63;;;7.40;92.80;;;;;;5063598;28;20424;-73
2021/01/03 02:36:53;;;;;;;16.20;12.67;;;7.40;92.80;;;;;;5063294;28;20400;-73
2021/01/03 02:39:24;;;;;;;18.97;14.37;;;7.30;92.50;;;;;;5059856;28;20428;-73
2021/01/03 02:41:55;;;;;;;17.63;13.83;;;7.30;93.00;;;;;;5062337;28;20407;-73
2021/01/03 02:44:21;;;;;;;17.37;13.30;;;7.40;93.10;;;;;;5060383;28;20447;-73
2021/01/03 02:46:49;;;;;;;15.93;13.40;;;7.30;92.90;;;;;;5063001;28;20479;-73
2021/01/03 02:49:15;;;;;;;18.37;14.50;;;7.30;92.90;;;;;;5063310;28;20930;-74
2021/01/03 02:51:40;;;;;;;17.60;13.43;;;7.40;92.80;;;;;;5063007;28;20451;-73
2021/01/03 02:54:08;;;;;;;17.20;13.40;;;7.30;92.60;;;;;;5061186;28;20182;-74
2021/01/03 02:56:34;;;;;;;17.03;14.13;;;7.30;93.30;;;;;;5062761;28;20191;-73
2021/01/03 02:59:00;;;;;;;13.80;12.40;;;7.30;92.80;;;;;;5063746;28;20427;-74
2021/01/03 03:01:26;;;;;;;15.77;12.70;;;7.30;92.30;;;;;;5062832;28;20379;-74
2021/01/03 03:03:51;;;;;;;14.10;12.33;;;7.30;92.10;;;;;;5060233;28;20193;-73
2021/01/03 03:06:17;;;;;;;14.80;11.50;;;7.30;92.10;;;;;;5066128;28;20178;-74
2021/01/03 03:08:43;;;;;;;15.27;11.43;;;7.40;92.00;;;;;;5074073;28;20218;-73
2021/01/03 03:11:09;;;;;;;13.10;11.30;;;7.30;91.40;;;;;;5060431;28;20180;-74
2021/01/03 03:13:35;;;;;;;12.30;11.00;;;7.40;91.50;;;;;;5053060;28;20580;-73
2021/01/03 03:16:01;;;;;;;16.13;12.17;;;7.40;91.40;;;;;;5054321;28;20403;-73
2021/01/03 03:18:26;;;;;;;12.37;11.00;;;7.40;91.20;;;;;;5052245;28;20173;-73
2021/01/03 03:20:52;;;;;;;13.80;11.53;;;7.30;91.20;;;;;;5053823;28;20418;-73
2021/01/03 03:23:18;;;;;;;15.90;11.67;;;7.30;91.20;;;;;;5053146;28;20404;-73
2021/01/03 03:25:44;;;;;;;14.60;11.90;;;7.30;92.10;;;;;;5086453;28;20387;-73
2021/01/03 03:28:09;;;;;;;18.23;12.70;;;7.30;91.70;;;;;;5053279;28;20203;-74
2021/01/03 03:30:35;;;;;;;14.33;11.07;;;7.30;92.20;;;;;;5053906;28;20218;-73
2021/01/03 03:33:01;;;;;;;15.17;12.10;;;7.20;92.20;;;;;;5053709;28;20183;-73
2021/01/03 03:35:37;;;;;;;14.63;12.47;;;7.30;92.10;;;;;;5052077;28;20412;-73
2021/01/03 03:38:05;;;;;;;13.90;11.80;;;7.30;92.20;;;;;;5053343;28;20393;-73
2021/01/03 03:40:32;;;;;;;12.90;10.60;;;7.30;92.60;;;;;;5051748;28;20418;-73
2021/01/03 03:42:58;;;;;;;13.53;11.43;;;7.40;92.50;;;;;;5053733;28;20403;-75
2021/01/03 03:45:23;;;;;;;15.73;11.70;;;7.40;92.20;;;;;;5052898;28;20406;-75
2021/01/03 03:47:49;;;;;;;10.93;9.70;;;7.50;92.20;;;;;;5052110;28;20178;-75
2021/01/03 03:50:18;;;;;;;12.30;10.63;;;7.50;91.80;;;;;;5051347;28;20216;-75
2021/01/03 03:52:45;;;;;;;11.17;10.07;;;7.50;90.90;;;;;;5053546;28;20197;-75
2021/01/03 03:55:12;;;;;;;11.40;9.93;;;7.50;90.70;;;;;;5052890;28;20480;-75
2021/01/03 03:57:37;;;;;;;10.90;9.50;;;7.50;90.80;;;;;;5051894;28;20888;-75
2021/01/03 04:00:09;;;;;;;11.80;10.50;;;7.50;90.70;;;;;;5052214;28;20424;-75
2021/01/03 04:02:35;;;;;;;11.77;9.93;;;7.50;91.00;;;;;;5053022;28;20210;-75
2021/01/03 04:05:01;;;;;;;11.07;9.83;;;7.50;90.80;;;;;;5053352;28;20393;-74
2021/01/03 04:07:26;;;;;;;11.07;9.97;;;7.50;91.30;;;;;;5052496;28;20215;-75
2021/01/03 04:09:52;;;;;;;12.80;10.97;;;7.50;91.20;;;;;;5053168;28;20240;-75
2021/01/03 04:12:18;;;;;;;13.00;11.70;;;7.40;91.70;;;;;;5052070;28;20177;-75
2021/01/03 04:14:43;;;;;;;14.87;11.73;;;7.40;91.60;;;;;;5053096;28;20674;-75
2021/01/03 04:17:09;;;;;;;16.97;12.13;;;7.40;92.10;;;;;;5052651;28;20176;-76
2021/01/03 04:19:35;;;;;;;15.17;12.47;;;7.40;91.50;;;;;;5070275;28;20179;-75
2021/01/03 04:22:04;;;;;;;16.23;11.73;;;7.30;91.80;;;;;;5033378;28;20381;-75
2021/01/03 04:24:31;;;;;;;15.10;12.10;;;7.40;92.20;;;;;;5032184;28;20624;-75
2021/01/03 04:27:00;;;;;;;15.17;12.70;;;7.40;91.90;;;;;;5032982;28;20492;-75
2021/01/03 04:29:27;;;;;;;15.30;12.43;;;7.40;91.70;;;;;;5047236;28;20558;-75
2021/01/03 04:31:58;;;;;;;15.60;13.10;;;7.40;91.80;;;;;;5032895;28;20418;-75
2021/01/03 04:34:25;;;;;;;17.17;12.50;;;7.40;91.80;;;;;;5041245;28;20754;-75
2021/01/03 04:36:52;;;;;;;17.80;13.93;;;7.40;91.70;;;;;;5052704;28;20946;-75
2021/01/03 04:39:19;;;;;;;15.83;13.80;;;7.40;92.50;;;;;;5051910;28;20417;-75
2021/01/03 04:41:46;;;;;;;17.07;12.97;;;7.40;92.60;;;;;;5052404;28;20432;-75
2021/01/03 04:44:31;;;;;;;19.80;15.33;;;7.40;92.40;;;;;;5052044;28;20391;-76
2021/01/03 04:47:03;;;;;;;18.87;13.93;;;7.30;92.70;;;;;;5052634;28;20364;-75
2021/01/03 04:49:41;;;;;;;20.70;14.70;;;7.30;92.90;;;;;;5051211;28;20444;-75
2021/01/03 04:52:10;;;;;;;19.53;14.10;;;7.30;93.30;;;;;;5052541;28;20394;-75
2021/01/03 04:54:45;;;;;;;19.80;14.10;;;7.30;93.20;;;;;;5051678;28;20899;-75
2021/01/03 04:57:12;;;;;;;19.53;13.90;;;7.40;93.60;;;;;;5052541;28;20856;-76
2021/01/03 04:59:50;;;;;;;18.40;14.37;;;7.40;93.20;;;;;;5052116;28;20458;-75
2021/01/03 05:02:41;;;;;;;19.77;15.30;;;7.30;93.40;;;;;;5051606;28;20375;-76
2021/01/03 05:05:27;;;;;;;18.70;15.00;;;7.30;93.50;;;;;;5052054;28;20478;-75
2021/01/03 05:08:16;;;;;;;19.30;15.33;;;7.30;93.80;;;;;;5052630;28;20410;-75
2021/01/03 05:10:43;;;;;;;21.10;14.50;;;7.20;93.50;;;;;;5051695;28;20456;-75
2021/01/03 05:13:31;;;;;;;19.37;14.60;;;7.20;93.80;;;;;;5052263;28;20878;-75
2021/01/03 05:15:57;;;;;;;17.93;13.83;;;7.20;93.70;;;;;;5052427;28;20374;-75
2021/01/03 05:18:23;;;;;;;19.23;14.60;;;7.20;94.10;;;;;;5051028;28;20432;-75
2021/01/03 05:20:56;;;;;;;19.73;14.33;;;7.20;94.80;;;;;;5050921;28;20190;-75
2021/01/03 05:23:27;;;;;;;18.73;13.57;;;7.30;94.70;;;;;;5051433;28;20176;-75
2021/01/03 05:25:54;;;;;;;19.77;14.93;;;7.30;93.80;;;;;;5052253;28;20834;-75
2021/01/03 05:28:28;;;;;;;17.80;14.70;;;7.30;93.70;;;;;;5050739;28;20426;-75
2021/01/03 05:31:18;;;;;;;20.07;14.90;;;7.30;94.00;;;;;;5051705;28;20473;-75
2021/01/03 05:33:53;;;;;;;17.40;14.03;;;7.20;93.90;;;;;;5052040;28;20448;-75
2021/01/03 05:36:52;;;;;;;18.40;14.10;;;7.20;94.80;;;;;;5051149;28;20440;-75
2021/01/03 05:39:18;;;;;;;18.23;14.10;;;7.20;93.80;;;;;;5054447;28;20439;-75
2021/01/03 05:41:43;;;;;;;17.47;13.70;;;7.20;93.70;;;;;;5051645;28;20405;-75
2021/01/03 05:44:20;;;;;;;14.90;12.47;;;7.20;93.80;;;;;;5051731;28;20190;-75
2021/01/03 05:46:51;;;;;;;24.80;15.80;;;7.30;93.80;;;;;;5051059;28;20171;-75
2021/01/03 05:49:25;;;;;;;16.20;12.30;;;7.20;93.60;;;;;;5050025;28;20447;-76
2021/01/03 05:52:06;;;;;;;14.33;11.87;;;7.20;93.70;;;;;;5051856;28;20469;-75
2021/01/03 05:54:35;;;;;;;16.90;11.83;;;7.10;93.30;;;;;;5049683;28;20471;-75
2021/01/03 05:57:06;;;;;;;16.90;12.77;;;7.10;93.60;;;;;;5051531;28;20762;-75
2021/01/03 05:59:36;;;;;;;13.40;11.30;;;7.00;92.90;;;;;;5049404;28;20409;-75
2021/01/03 06:02:21;;;;;;;14.70;11.60;;;7.00;93.20;;;;;;5052657;28;20436;-75
2021/01/03 06:04:47;;;;;;;13.20;10.43;;;7.10;92.80;;;;;;5054651;28;20788;-75
2021/01/03 06:07:27;;;;;;;16.60;10.17;;;7.10;92.80;;;;;;5055576;28;20379;-75
2021/01/03 06:09:53;;;;;;;12.90;10.53;;;7.20;92.60;;;;;;5054331;28;20293;-75
2021/01/03 06:12:27;;;;;;;12.50;10.37;;;7.20;92.30;;;;;;5054757;28;20550;-77
2021/01/03 06:15:03;;;;;;;11.83;9.70;;;7.20;93.00;;;;;;5055215;28;20177;-75
2021/01/03 06:17:35;;;;;;;12.68;10.73;;;7.10;92.00;;;;;;5054568;28;20412;-75
2021/01/03 06:20:25;;;;;;;10.67;9.57;;;7.10;92.40;;;;;;5055274;28;20220;-75
2021/01/03 06:23:10;;;;;;;12.17;9.33;;;7.10;93.00;;;;;;5055022;28;20404;-75
2021/01/03 06:25:44;;;;;;;10.10;9.10;;;7.00;92.20;;;;;;5054115;28;20421;-75
2021/01/03 06:28:24;;;;;;;10.60;9.50;;;6.90;92.70;;;;;;5052912;28;20428;-75
2021/01/03 06:31:12;;;;;;;11.80;9.53;;;7.00;92.60;;;;;;5054860;28;20415;-75
2021/01/03 06:34:08;;;;;;;12.33;9.33;;;7.00;92.10;;;;;;5054266;28;20399;-75
2021/01/03 06:36:58;;;;;;;10.73;9.00;;;6.90;92.80;;;;;;5053884;28;20509;-75
2021/01/03 06:39:36;;;;;;;9.67;8.67;;;7.00;92.30;;;;;;5053352;28;20486;-75
2021/01/03 06:42:05;;;;;;;9.93;8.93;;;7.00;92.20;;;;;;5054342;28;20410;-75
2021/01/03 06:44:52;;;;;;;10.43;9.33;;;7.00;91.70;;;;;;5053789;28;20409;-75
2021/01/03 06:48:01;;;;;;;9.00;8.10;;;7.00;91.90;;;;;;5054786;28;20403;-76
2021/01/03 06:50:59;;;;;;;8.83;8.00;;;7.00;91.70;;;;;;5053477;28;20466;-73
2021/01/03 06:53:46;;;;;;;9.60;8.60;;;7.10;91.60;;;;;;5053566;28;20951;-74
2021/01/03 06:56:36;;;;;;;10.20;8.55;;;7.00;91.70;;;;;;5054689;28;20734;-73
2021/01/03 06:59:23;;;;;;;9.60;8.30;;;7.10;91.40;;;;;;5054423;28;20170;-73
2021/01/03 07:01:50;;;;;;;9.95;8.40;;;7.00;91.70;;;;;;5052842;28;20713;-74
2021/01/03 07:04:34;;;;;;;12.60;9.20;;;7.00;91.70;;;;;;5053900;28;20209;-74
2021/01/03 07:07:02;;;;;;;10.90;8.93;;;7.00;90.70;;;;;;5053286;28;20575;-73
2021/01/03 07:09:28;;;;;;;9.03;8.13;;;7.00;90.90;;;;;;5053491;28;20431;-73
2021/01/03 07:11:57;;;;;;;9.25;8.25;;;7.10;91.40;;;;;;5054517;28;20752;-73
2021/01/03 07:14:22;;;;;;;9.10;8.27;;;7.10;91.00;;;;;;5053269;28;20224;-74
2021/01/03 07:16:54;;;;;;;8.50;7.60;;;7.10;90.70;;;;;;5053750;28;20400;-74
2021/01/03 07:19:35;;;;;;;9.47;8.50;;;7.20;91.10;;;;;;5053113;28;20172;-75
2021/01/03 07:22:15;;;;;;;9.93;8.67;;;7.30;91.20;;;;;;5052939;28;20407;-74
2021/01/03 07:24:46;;;;;;;8.90;8.00;;;7.40;90.80;;;;;;5052755;28;20883;-74
2021/01/03 07:27:26;;;;;;;8.33;7.60;;;7.40;90.70;;;;;;5053920;28;20454;-74
2021/01/03 07:29:54;;;;;;;8.60;7.80;;;7.40;90.20;;;;;;5051055;28;20496;-74
2021/01/03 07:32:29;;;;;;;8.67;7.77;;;7.30;90.00;;;;;;5053530;28;20418;-74
2021/01/03 07:34:55;;;;;;;8.70;7.80;;;7.40;90.00;;;;;;5053538;28;20453;-73
2021/01/03 07:37:26;;;;;;;9.60;8.60;;;7.20;89.90;;;;;;5053659;28;20381;-75
2021/01/03 07:40:14;;;;;;;9.10;8.20;;;7.20;90.40;;;;;;5053690;28;20417;-74
2021/01/03 07:42:42;;;;;;;9.10;8.23;;;7.20;89.70;;;;;;5052735;28;20430;-74
2021/01/03 07:45:14;;;;;;;8.60;7.77;;;7.20;90.60;;;;;;5053641;28;20428;-74
2021/01/03 07:47:46;;;;;;;8.80;8.00;;;7.20;90.50;;;;;;5053009;28;20395;-74
2021/01/03 07:50:24;;;;;;;9.63;8.73;;;7.10;90.70;;;;;;5052879;28;20431;-74
2021/01/03 07:53:16;;;;;;;9.18;8.27;;;7.10;90.70;;;;;;5053472;28;20412;-74
2021/01/03 07:55:42;;;;;;;10.60;9.50;;;7.10;90.50;;;;;;5052191;28;20178;-74
2021/01/03 07:58:14;;;;;;;10.45;8.82;;;7.00;90.70;;;;;;5053101;28;20235;-74
2021/01/03 08:00:42;;;;;;;11.10;9.20;;;7.00;91.80;;;;;;5052824;28;20215;-74
2021/01/03 08:03:15;;;;;;;8.90;8.10;;;7.10;91.90;;;;;;5052844;28;20392;-74
2021/01/03 08:05:43;;;;;;;9.93;8.97;;;7.10;91.80;;;;;;5052304;28;20403;-74
2021/01/03 08:08:22;;;;;;;9.70;8.70;;;7.20;90.90;;;;;;5053184;28;20418;-72
2021/01/03 08:10:51;;;;;;;8.80;8.00;;;7.10;90.40;;;;;;5052771;28;20514;-74
2021/01/03 08:13:25;;;;;;;8.53;7.70;;;7.20;90.70;;;;;;5051790;28;20463;-74
2021/01/03 08:15:55;;;;;;;9.03;8.23;;;7.20;89.90;;;;;;5052851;28;20412;-74
2021/01/03 08:18:21;;;;;;;8.77;7.93;;;7.10;90.00;;;;;;5051230;28;20470;-74
2021/01/03 08:20:51;;;;;;;10.07;8.83;;;7.10;91.10;;;;;;5052276;28;20388;-74
2021/01/03 08:23:20;;;;;;;9.87;8.90;;;7.10;90.30;;;;;;5053136;28;20399;-74
2021/01/03 08:25:46;;;;;;;9.70;8.73;;;7.10;91.40;;;;;;5051399;28;20434;-74
2021/01/03 08:28:20;;;;;;;10.07;8.80;;;7.10;90.70;;;;;;5052123;28;20429;-74
2021/01/03 08:30:49;;;;;;;10.40;9.23;;;7.20;90.50;;;;;;5051427;28;20426;-74
2021/01/03 08:33:35;;;;;;;9.43;8.53;;;7.10;89.90;;;;;;5051448;28;20388;-74
2021/01/03 08:36:18;;;;;;;10.30;9.20;;;7.10;90.60;;;;;;5051587;28;20922;-78
2021/01/03 08:38:45;;;;;;;8.77;8.00;;;7.20;90.00;;;;;;5051391;28;20533;-73
2021/01/03 08:41:16;;;;;;;9.50;8.57;;;7.10;89.10;;;;;;5053067;28;20419;-74
2021/01/03 08:43:43;;;;;;;10.80;8.70;;;7.10;90.50;;;;;;5051570;28;20423;-74
2021/01/03 08:46:09;;;;;;;9.00;8.13;;;7.10;90.00;;;;;;5052254;28;20385;-74
2021/01/03 08:48:35;;;;;;;10.20;9.27;;;7.20;90.50;;;;;;5051647;28;20434;-74
2021/01/03 08:51:13;;;;;;;9.90;8.90;;;7.20;90.90;;;;;;5052105;28;20460;-74
2021/01/03 08:53:40;;;;;;;10.60;9.50;;;7.20;90.00;;;;;;5051490;28;20420;-74
2021/01/03 08:56:18;;;;;;;9.43;8.47;;;7.20;88.90;;;;;;5050614;28;20401;-74
2021/01/03 08:58:44;;;;;;;10.85;9.75;;;7.20;90.20;;;;;;5051578;28;20734;-74
2021/01/03 09:01:19;;;;;;;8.83;7.87;;;7.20;91.00;;;;;;5064469;28;20186;-74
2021/01/03 09:03:46;;;;;;;9.47;8.57;;;7.20;90.40;;;;;;5049112;28;21050;-74
2021/01/03 09:06:14;;;;;;;8.50;7.70;;;7.30;90.00;;;;;;5050212;28;20397;-74
2021/01/03 09:08:41;;;;;;;8.67;7.97;;;7.30;89.60;;;;;;5054511;28;20727;-74
2021/01/03 09:11:19;;;;;;;9.23;8.30;;;7.30;90.60;;;;;;5072281;28;20506;-74
2021/01/03 09:13:50;;;;;;;8.40;7.63;;;7.30;90.10;;;;;;5049622;28;20472;-74
2021/01/03 09:16:41;;;;;;;9.60;8.70;;;7.40;89.40;;;;;;5051013;28;20441;-74
2021/01/03 09:19:24;;;;;;;8.37;7.60;;;7.40;90.70;;;;;;5049547;28;20476;-74
2021/01/03 09:21:56;;;;;;;9.03;8.20;;;7.30;90.00;;;;;;5051418;28;20476;-74
2021/01/03 09:24:28;;;;;;;9.00;8.20;;;7.30;90.30;;;;;;5050697;28;20550;-74
2021/01/03 09:26:55;;;;;;;12.43;10.07;;;7.30;89.00;;;;;;5032270;28;20439;-74
2021/01/03 09:29:34;;;;;;;8.33;7.63;;;7.40;90.20;;;;;;5031835;28;21039;-73
2021/01/03 09:32:26;;;;;;;11.87;10.63;;;7.40;96.80;;;;;;5049932;28;20425;-73
2021/01/03 09:34:58;;;;;;;9.40;8.60;;;8.90;99.90;;;;;;5051559;28;20419;-73
2021/01/03 09:37:28;;;;;;;8.47;7.60;;;9.90;99.90;;;;;;5051859;28;20473;-73
2021/01/03 09:40:42;;;;;;;29.70;20.60;;;10.90;99.90;;;;;;5055369;28;20490;-74
2021/01/03 09:43:41;;;;;;;37.17;23.67;;;11.90;99.90;;;;;;5047076;28;20426;-74
2021/01/03 09:46:18;;;;;;;109.27;68.33;;;12.80;99.90;;;;;;5036003;28;20411;-73
2021/01/03 09:48:46;;;;;;;39.30;29.67;;;13.50;99.40;;;;;;5056947;28;20439;-74
2021/01/03 09:51:49;;;;;;;49.93;32.23;;;13.80;93.90;;;;;;5054996;28;20468;-74
2021/01/03 09:54:20;;;;;;;36.43;24.93;;;14.10;93.10;;;;;;5035632;28;20487;-74
2021/01/03 09:56:51;;;;;;;68.77;45.13;;;14.30;91.50;;;;;;5034975;28;20414;-74
2021/01/03 09:59:19;;;;;;;129.93;79.63;;;14.50;90.50;;;;;;5041581;28;20441;-74
2021/01/03 10:01:48;;;;;;;123.87;78.83;;;14.60;91.90;;;;;;5054979;28;20463;-73
2021/01/03 10:04:21;;;;;;;20.53;17.30;;;14.80;90.60;;;;;;5054430;28;20457;-73
2021/01/03 10:06:53;;;;;;;135.57;86.73;;;14.80;77.90;;;;;;5054637;28;20760;-73
2021/01/03 10:09:25;;;;;;;21.07;16.40;;;14.50;85.50;;;;;;5054470;28;20463;-73
2021/01/03 10:11:52;;;;;;;106.93;67.37;;;14.30;78.90;;;;;;5059171;28;20413;-73
2021/01/03 10:14:33;;;;;;;43.80;31.67;;;14.40;90.20;;;;;;5063277;28;20547;-73
2021/01/03 10:17:22;;;;;;;84.23;54.13;;;14.70;90.90;;;;;;5062665;28;20418;-73
2021/01/03 10:19:48;;;;;;;12.25;11.10;;;14.90;85.00;;;;;;5056969;28;20453;-73
2021/01/03 10:22:44;;;;;;;9.10;8.40;;;14.90;66.40;;;;;;5064725;28;20174;-73
2021/01/03 10:25:14;;;;;;;10.90;9.80;;;13.90;61.00;;;;;;5054127;28;20434;-73
2021/01/03 10:27:52;;;;;;;10.57;9.67;;;12.80;63.50;;;;;;5059143;28;20497;-73
2021/01/03 10:30:18;;;;;;;10.13;9.23;;;12.00;66.00;;;;;;5096377;28;20498;-73
2021/01/03 10:32:44;;;;;;;10.03;9.03;;;11.20;70.00;;;;;;5062825;28;20429;-74
2021/01/03 10:35:10;;;;;;;9.50;8.70;;;10.50;72.50;;;;;;5067115;28;20425;-72
2021/01/03 10:37:36;;;;;;;10.10;9.10;;;10.10;71.90;;;;;;5061749;28;20176;-73
2021/01/03 10:40:01;;;;;;;10.10;9.20;;;9.70;75.20;;;;;;5068880;28;20423;-73
2021/01/03 10:42:27;;;;;;;10.20;9.30;;;9.20;78.50;;;;;;5075073;28;20188;-72
2021/01/03 10:44:53;;;;;;;9.47;8.50;;;8.70;79.80;;;;;;5063732;28;20415;-73
2021/01/03 10:47:19;;;;;;;9.00;8.13;;;8.50;81.20;;;;;;5054282;28;20275;-73
2021/01/03 10:49:44;;;;;;;10.17;9.10;;;8.30;85.20;;;;;;5052580;28;20691;-73
2021/01/03 10:52:10;;;;;;;10.03;8.90;;;8.10;84.30;;;;;;5053563;28;20178;-73
2021/01/03 10:54:36;;;;;;;55.60;33.83;;;8.00;84.50;;;;;;5053844;28;20211;-74
2021/01/03 10:57:01;;;;;;;12.80;11.50;;;7.70;89.50;;;;;;5054552;28;20186;-73
2021/01/03 10:59:27;;;;;;;8.17;7.37;;;7.70;89.90;;;;;;5054422;28;20176;-71
2021/01/03 11:01:53;;;;;;;8.87;8.00;;;7.70;87.10;;;;;;5053620;28;20424;-73
2021/01/03 11:04:22;;;;;;;7.37;6.67;;;7.70;87.40;;;;;;5059952;28;20202;-73
2021/01/03 11:06:50;;;;;;;7.67;7.00;;;7.60;89.80;;;;;;5058495;28;20770;-73
2021/01/03 11:09:27;;;;;;;7.00;6.30;;;7.50;88.20;;;;;;5054328;28;20455;-73
2021/01/03 11:12:02;;;;;;;8.20;7.50;;;7.50;89.50;;;;;;5052694;28;20442;-73
2021/01/03 11:14:28;;;;;;;7.90;6.73;;;7.40;87.90;;;;;;5034354;28;20386;-73
2021/01/03 11:16:54;;;;;;;8.80;7.90;;;7.40;88.50;;;;;;5066952;28;20938;-73
2021/01/03 11:19:20;;;;;;;7.33;6.73;;;7.30;89.90;;;;;;5048856;28;20396;-73
2021/01/03 11:21:46;;;;;;;7.20;6.50;;;7.30;90.00;;;;;;5060943;28;20859;-73
2021/01/03 11:24:13;;;;;;;9.07;8.23;;;7.00;90.10;;;;;;5061637;28;20216;-73
2021/01/03 11:26:42;;;;;;;10.57;7.87;;;6.80;90.80;;;;;;5062095;28;20546;-73
2021/01/03 11:29:11;;;;;;;6.90;6.30;;;6.80;91.30;;;;;;5061218;28;20453;-73
2021/01/03 11:31:41;;;;;;;8.33;7.53;;;6.90;91.80;;;;;;5063068;28;20544;-74
2021/01/03 11:34:08;;;;;;;8.23;7.30;;;6.90;91.20;;;;;;5060200;28;20395;-73
2021/01/03 11:36:35;;;;;;;7.90;7.20;;;6.80;91.60;;;;;;5062417;28;20395;-74
2021/01/03 11:39:04;;;;;;;8.73;7.83;;;6.70;91.50;;;;;;5062264;28;20383;-73
2021/01/03 11:41:30;;;;;;;7.37;6.77;;;6.80;93.00;;;;;;5059907;28;20396;-73
2021/01/03 11:43:56;;;;;;;7.90;7.10;;;6.80;91.60;;;;;;5057934;28;20458;-73
2021/01/03 11:46:22;;;;;;;8.57;7.10;;;6.70;91.60;;;;;;5062035;28;20849;-74
2021/01/03 11:48:47;;;;;;;8.63;6.05;;;6.60;92.00;;;;;;5062410;28;20857;-74
2021/01/03 11:51:13;;;;;;;7.60;6.87;;;6.70;93.10;;;;;;5058161;28;20208;-75
2021/01/03 11:53:39;;;;;;;7.33;6.63;;;6.70;92.70;;;;;;5061065;28;20199;-74
2021/01/03 11:56:05;;;;;;;8.53;7.73;;;6.70;91.90;;;;;;5060889;28;20454;-74
2021/01/03 11:58:32;;;;;;;7.97;7.37;;;6.60;92.10;;;;;;5067710;28;20391;-75
2021/01/03 12:00:58;;;;;;;9.13;8.27;;;6.60;92.50;;;;;;5062480;28;20453;-75
2021/01/03 12:03:23;;;;;;;9.10;8.00;;;6.60;92.30;;;;;;5051553;28;20642;-74
2021/01/03 12:05:49;;;;;;;8.00;7.10;;;6.50;92.40;;;;;;5051603;28;20541;-74
2021/01/03 12:08:15;;;;;;;8.63;7.83;;;6.50;92.30;;;;;;5030249;28;20276;-74
2021/01/03 12:10:41;;;;;;;8.55;7.75;;;6.50;92.70;;;;;;5051597;28;20472;-73
2021/01/03 12:13:07;;;;;;;9.93;7.70;;;6.50;92.80;;;;;;5052302;28;20728;-73
2021/01/03 12:15:34;;;;;;;8.43;7.60;;;6.70;93.60;;;;;;5052371;28;20218;-75
2021/01/03 12:18:00;;;;;;;15.02;13.02;;;6.70;92.80;;;;;;5060297;28;20242;-74
2021/01/03 12:20:26;;;;;;;152.80;93.90;;;6.70;92.80;;;;;;5061276;28;20288;-72
2021/01/03 12:22:51;;;;;;;9.00;8.20;;;6.90;93.50;;;;;;5059718;28;20244;-71
2021/01/03 12:25:18;;;;;;;9.13;8.33;;;6.90;92.40;;;;;;5061291;28;20405;-73
2021/01/03 12:27:44;;;;;;;10.57;8.52;;;6.90;93.40;;;;;;5060017;28;20181;-73
2021/01/03 12:30:11;;;;;;;9.97;9.07;;;7.00;93.90;;;;;;5036984;28;20594;-74
2021/01/03 12:32:38;;;;;;;9.20;8.30;;;7.10;92.10;;;;;;5063595;28;20436;-73
2021/01/03 12:35:06;;;;;;;9.90;8.03;;;7.10;92.20;;;;;;5058292;28;20396;-74
2021/01/03 12:37:31;;;;;;;9.57;8.67;;;7.10;91.90;;;;;;5060150;28;20384;-73
2021/01/03 12:39:57;;;;;;;9.27;8.33;;;7.10;92.50;;;;;;5060463;28;20410;-73
2021/01/03 12:42:24;;;;;;;9.23;8.23;;;7.10;92.20;;;;;;5061416;28;20190;-74
2021/01/03 12:44:50;;;;;;;9.17;8.43;;;7.10;92.30;;;;;;5057010;28;20181;-73
2021/01/03 12:47:17;;;;;;;11.10;9.60;;;7.10;92.60;;;;;;5061312;28;20423;-73
2021/01/03 12:49:43;;;;;;;10.57;9.52;;;7.20;92.50;;;;;;5056771;28;20487;-75
2021/01/03 12:52:09;;;;;;;9.53;8.63;;;7.00;92.80;;;;;;5040851;28;20680;-73
2021/01/03 12:54:35;;;;;;;9.30;8.40;;;7.10;92.50;;;;;;5060914;28;20433;-74
2021/01/03 12:57:01;;;;;;;9.38;8.55;;;7.00;91.80;;;;;;5059863;28;20402;-73
2021/01/03 12:59:27;;;;;;;9.90;8.90;;;7.00;92.10;;;;;;5060815;28;20509;-74
2021/01/03 13:01:53;;;;;;;10.30;9.30;;;7.10;92.30;;;;;;5059639;28;20492;-73
2021/01/03 13:04:19;;;;;;;11.10;9.03;;;7.10;93.10;;;;;;5060769;28;20884;-73